Time;durP1;ratioP1;P1;durP2;ratioP2;P2;SDS_P1;SDS_P2;PMS_P1;PMS_P2;Temp;Humidity;BMP_temperature;BMP_pressure;BME280_temperature;BME280_humidity;BME280_pressure;Samples;Min_cycle;Max_cycle;Signal;HPM_P1;HPM_P2
2021/05/20 00:01:04;;;;;;;4.57;3.88;;;19.10;57.10;;;;;;6191816;23;20158;-79
2021/05/20 00:03:30;;;;;;;4.47;3.70;;;19.10;57.10;;;;;;6191619;23;20629;-79
2021/05/20 00:06:05;;;;;;;4.90;3.90;;;19.10;57.20;;;;;;6191437;23;20138;-79
2021/05/20 00:08:31;;;;;;;5.10;3.83;;;19.10;57.20;;;;;;6165150;23;20166;-79
2021/05/20 00:10:58;;;;;;;5.20;3.67;;;19.10;57.10;;;;;;6192044;23;20571;-79
2021/05/20 00:13:24;;;;;;;6.25;4.30;;;19.10;57.20;;;;;;6192362;23;20128;-79
2021/05/20 00:15:51;;;;;;;6.13;3.97;;;19.10;57.20;;;;;;6166022;23;20154;-78
2021/05/20 00:18:20;;;;;;;5.10;3.63;;;19.10;57.20;;;;;;6167177;23;20135;-79
2021/05/20 00:20:47;;;;;;;4.65;4.03;;;19.10;57.10;;;;;;6192670;23;20161;-79
2021/05/20 00:23:13;;;;;;;6.55;4.03;;;19.10;57.20;;;;;;6191672;23;20206;-79
2021/05/20 00:25:39;;;;;;;4.35;3.70;;;19.10;57.20;;;;;;6191865;23;20154;-79
2021/05/20 00:28:14;;;;;;;4.70;4.03;;;19.10;57.10;;;;;;6191637;23;20131;-79
2021/05/20 00:30:40;;;;;;;6.07;3.60;;;19.10;57.10;;;;;;6192314;23;20194;-79
2021/05/20 00:33:06;;;;;;;4.57;4.15;;;19.10;57.10;;;;;;6192203;23;20505;-78
2021/05/20 00:35:32;;;;;;;4.00;3.60;;;19.10;57.10;;;;;;6191722;23;20578;-79
2021/05/20 00:37:58;;;;;;;4.43;4.03;;;19.10;57.10;;;;;;6191578;23;20135;-79
2021/05/20 00:40:24;;;;;;;4.95;3.33;;;19.10;57.10;;;;;;6165434;23;20194;-79
2021/05/20 00:42:51;;;;;;;5.13;3.90;;;19.10;57.10;;;;;;6192039;23;20147;-78
2021/05/20 00:45:17;;;;;;;4.55;3.90;;;19.10;57.10;;;;;;6165185;23;20584;-79
2021/05/20 00:47:52;;;;;;;4.55;4.15;;;19.10;57.10;;;;;;6165856;23;20170;-79
2021/05/20 00:50:18;;;;;;;4.07;3.67;;;19.10;57.10;;;;;;6165077;23;20170;-79
2021/05/20 00:52:46;;;;;;;5.57;3.90;;;19.10;57.00;;;;;;6140679;23;20139;-79
2021/05/20 00:55:16;;;;;;;4.07;3.60;;;19.10;57.10;;;;;;6141178;23;20143;-79
2021/05/20 00:57:42;;;;;;;4.32;3.60;;;19.10;57.10;;;;;;6166036;23;20169;-79
2021/05/20 01:00:11;;;;;;;4.80;3.70;;;19.10;57.00;;;;;;6191606;23;20552;-78
2021/05/20 01:02:40;;;;;;;3.90;3.50;;;19.10;57.10;;;;;;6165831;23;20143;-79
2021/05/20 01:05:09;;;;;;;4.63;3.92;;;19.10;57.00;;;;;;6191625;23;20158;-79
2021/05/20 01:07:36;;;;;;;4.45;3.90;;;19.10;57.10;;;;;;6165561;23;20139;-79
2021/05/20 01:10:08;;;;;;;4.10;3.70;;;19.10;57.10;;;;;;6191260;23;20591;-79
2021/05/20 01:12:34;;;;;;;6.43;3.80;;;19.10;57.10;;;;;;6191535;23;20186;-79
2021/05/20 01:15:02;;;;;;;5.35;4.03;;;19.10;57.10;;;;;;6165030;23;20138;-79
2021/05/20 01:17:28;;;;;;;7.90;4.25;;;19.10;57.10;;;;;;6191008;23;20173;-79
2021/05/20 01:20:03;;;;;;;5.03;3.80;;;19.10;57.10;;;;;;6191522;23;20139;-79
2021/05/20 01:22:30;;;;;;;5.72;3.90;;;19.00;57.10;;;;;;6191313;23;20134;-80
2021/05/20 01:24:58;;;;;;;4.72;3.97;;;19.10;57.00;;;;;;6191608;23;20591;-79
2021/05/20 01:27:27;;;;;;;5.38;4.13;;;19.10;57.10;;;;;;6191396;23;20566;-79
2021/05/20 01:29:54;;;;;;;4.35;3.95;;;19.00;57.10;;;;;;6165090;23;20245;-79
2021/05/20 01:32:20;;;;;;;4.50;3.97;;;19.00;57.10;;;;;;6191376;23;20127;-79
2021/05/20 01:34:56;;;;;;;9.38;3.95;;;19.00;57.10;;;;;;6164950;23;20138;-79
2021/05/20 01:37:22;;;;;;;4.88;4.13;;;19.00;57.10;;;;;;6191816;23;20157;-79
2021/05/20 01:39:49;;;;;;;5.80;4.00;;;19.00;57.10;;;;;;6191376;23;20183;-79
2021/05/20 01:42:21;;;;;;;6.15;4.13;;;19.00;57.00;;;;;;6191997;23;20127;-79
2021/05/20 01:44:48;;;;;;;6.38;4.20;;;19.00;57.20;;;;;;6191950;23;20158;-79
2021/05/20 01:47:15;;;;;;;4.47;4.07;;;19.00;57.20;;;;;;6190916;23;20166;-79
2021/05/20 01:49:41;;;;;;;5.75;4.07;;;19.00;57.20;;;;;;6191847;23;20194;-79
2021/05/20 01:52:08;;;;;;;4.80;3.90;;;19.00;57.10;;;;;;6165144;23;20154;-79
2021/05/20 01:54:34;;;;;;;4.97;4.00;;;19.00;57.20;;;;;;6191438;23;20135;-79
2021/05/20 01:57:00;;;;;;;5.07;4.22;;;19.00;57.20;;;;;;6192014;23;20131;-79
2021/05/20 01:59:27;;;;;;;5.13;4.07;;;19.00;57.30;;;;;;6164631;23;20146;-78
2021/05/20 02:01:54;;;;;;;5.05;4.10;;;19.00;57.20;;;;;;6191779;23;20155;-79
2021/05/20 02:04:20;;;;;;;5.40;4.13;;;19.00;57.20;;;;;;6191503;23;20135;-79
2021/05/20 02:06:46;;;;;;;5.45;4.10;;;19.00;57.40;;;;;;6139969;23;20189;-79
2021/05/20 02:09:12;;;;;;;4.50;4.07;;;19.00;57.30;;;;;;6191645;23;20221;-79
2021/05/20 02:11:39;;;;;;;5.38;4.00;;;19.00;57.30;;;;;;6140674;23;20135;-79
2021/05/20 02:14:05;;;;;;;4.60;4.07;;;19.00;57.30;;;;;;6165579;23;20141;-79
2021/05/20 02:16:34;;;;;;;4.82;3.80;;;19.00;57.40;;;;;;6140329;23;20142;-79
2021/05/20 02:19:02;;;;;;;4.60;4.10;;;19.00;57.30;;;;;;6191764;23;20135;-79
2021/05/20 02:21:29;;;;;;;4.30;3.90;;;19.00;57.40;;;;;;6191271;23;20135;-78
2021/05/20 02:23:55;;;;;;;4.63;4.00;;;19.00;57.40;;;;;;6139949;23;20521;-79
2021/05/20 02:26:21;;;;;;;4.47;3.88;;;19.00;57.40;;;;;;6191432;23;20131;-78
2021/05/20 02:28:47;;;;;;;4.93;3.88;;;19.00;57.40;;;;;;6190863;23;20490;-79
2021/05/20 02:31:14;;;;;;;5.47;3.90;;;18.90;57.30;;;;;;6191548;23;20139;-78
2021/05/20 02:33:48;;;;;;;7.75;4.00;;;19.00;57.20;;;;;;6139671;23;20143;-79
2021/05/20 02:36:15;;;;;;;5.13;3.67;;;18.90;57.20;;;;;;6191175;23;20178;-79
2021/05/20 02:38:41;;;;;;;4.60;4.00;;;19.00;57.30;;;;;;6191777;23;20209;-79
2021/05/20 02:41:08;;;;;;;5.55;4.50;;;19.00;57.40;;;;;;6164623;23;20269;-79
2021/05/20 02:43:43;;;;;;;5.57;3.90;;;19.00;57.40;;;;;;6165211;23;20135;-78
2021/05/20 02:46:09;;;;;;;4.40;4.00;;;18.90;57.30;;;;;;6191641;23;20141;-79
2021/05/20 02:48:35;;;;;;;4.68;3.85;;;18.90;57.30;;;;;;6164805;23;20216;-79
2021/05/20 02:51:02;;;;;;;4.20;3.80;;;18.90;57.20;;;;;;6190747;23;20131;-79
2021/05/20 02:53:28;;;;;;;5.13;3.88;;;18.90;57.30;;;;;;6192908;23;20131;-79
2021/05/20 02:55:55;;;;;;;5.63;4.43;;;18.90;57.30;;;;;;6166995;23;20577;-80
2021/05/20 02:58:22;;;;;;;4.50;4.10;;;18.90;57.30;;;;;;6141816;23;20143;-79
2021/05/20 03:00:49;;;;;;;10.45;4.38;;;18.90;57.40;;;;;;6193448;23;20154;-79
2021/05/20 03:03:15;;;;;;;5.13;3.92;;;18.90;57.40;;;;;;6166434;23;20131;-78
2021/05/20 03:05:43;;;;;;;4.20;3.80;;;18.90;57.40;;;;;;6166785;23;20209;-79
2021/05/20 03:08:11;;;;;;;4.47;4.07;;;18.90;57.40;;;;;;6166232;23;20181;-79
2021/05/20 03:10:37;;;;;;;4.50;4.10;;;18.90;57.30;;;;;;6166141;23;20132;-79
2021/05/20 03:13:12;;;;;;;5.25;4.18;;;18.90;57.40;;;;;;6192803;23;20575;-79
2021/05/20 03:15:39;;;;;;;4.75;3.72;;;18.90;57.40;;;;;;6192475;23;20213;-79
2021/05/20 03:18:06;;;;;;;4.60;4.03;;;18.90;57.30;;;;;;6166599;23;20154;-79
2021/05/20 03:20:33;;;;;;;5.18;4.05;;;18.90;57.20;;;;;;6165902;23;20131;-79
2021/05/20 03:22:59;;;;;;;5.43;4.18;;;18.90;57.20;;;;;;6165666;23;20153;-79
2021/05/20 03:25:25;;;;;;;4.80;4.30;;;18.90;57.40;;;;;;6192306;23;20138;-78
2021/05/20 03:27:52;;;;;;;4.70;4.07;;;18.90;57.30;;;;;;6166032;23;20193;-79
2021/05/20 03:30:20;;;;;;;4.63;4.00;;;18.90;57.30;;;;;;6166037;23;20764;-79
2021/05/20 03:32:47;;;;;;;4.55;4.05;;;18.90;57.30;;;;;;6166501;23;20151;-79
2021/05/20 03:35:13;;;;;;;4.60;4.10;;;18.90;57.20;;;;;;6166392;23;20137;-79
2021/05/20 03:37:40;;;;;;;4.45;4.00;;;18.90;57.40;;;;;;6192333;23;20131;-79
2021/05/20 03:40:06;;;;;;;5.60;4.07;;;18.90;57.20;;;;;;6165834;23;20182;-79
2021/05/20 03:42:33;;;;;;;4.35;3.95;;;18.90;57.40;;;;;;6166506;23;20521;-80
2021/05/20 03:45:02;;;;;;;4.47;3.75;;;18.90;57.30;;;;;;6192334;23;20147;-79
2021/05/20 03:47:29;;;;;;;4.38;3.83;;;18.90;57.40;;;;;;6166347;23;20138;-79
2021/05/20 03:49:56;;;;;;;5.32;4.28;;;18.80;57.40;;;;;;6192654;23;20170;-79
2021/05/20 03:52:23;;;;;;;4.95;4.45;;;18.80;57.40;;;;;;6166805;23;20552;-78
2021/05/20 03:54:57;;;;;;;4.25;3.85;;;18.90;57.40;;;;;;6166657;23;20135;-79
2021/05/20 03:57:24;;;;;;;4.95;4.25;;;18.90;57.40;;;;;;6166903;23;20134;-79
2021/05/20 03:59:51;;;;;;;5.68;4.15;;;18.90;57.40;;;;;;6192610;23;20146;-79
2021/05/20 04:02:17;;;;;;;5.60;4.40;;;18.90;57.40;;;;;;6193432;23;20178;-79
2021/05/20 04:04:44;;;;;;;4.53;4.00;;;18.90;57.50;;;;;;6166360;23;20135;-79
2021/05/20 04:07:10;;;;;;;4.72;4.20;;;18.80;57.40;;;;;;6193958;23;20138;-79
2021/05/20 04:09:37;;;;;;;4.80;3.95;;;18.80;57.40;;;;;;6192963;23;20170;-79
2021/05/20 04:12:08;;;;;;;4.32;3.85;;;18.80;57.30;;;;;;6166471;23;20474;-79
2021/05/20 04:14:35;;;;;;;7.32;4.10;;;18.80;57.30;;;;;;6193073;23;20218;-79
2021/05/20 04:17:03;;;;;;;5.05;3.90;;;18.80;57.20;;;;;;6193634;23;20459;-79
2021/05/20 04:19:37;;;;;;;5.03;4.18;;;18.80;56.80;;;;;;6166919;23;20131;-79
2021/05/20 04:22:04;;;;;;;4.85;4.00;;;18.80;56.60;;;;;;6192712;23;20130;-79
2021/05/20 04:24:31;;;;;;;5.80;4.07;;;18.80;56.80;;;;;;6165523;23;20131;-79
2021/05/20 04:26:57;;;;;;;5.00;3.90;;;18.80;56.40;;;;;;6166210;23;20151;-80
2021/05/20 04:29:27;;;;;;;5.25;4.13;;;18.90;56.30;;;;;;6180265;23;20171;-78
2021/05/20 04:31:52;;;;;;;4.22;3.83;;;18.80;56.20;;;;;;6166337;23;20214;-79
2021/05/20 04:34:19;;;;;;;5.13;4.00;;;18.80;55.80;;;;;;6192397;23;20134;-79
2021/05/20 04:36:45;;;;;;;5.55;4.20;;;18.80;55.70;;;;;;6192115;23;20135;-79
2021/05/20 04:39:12;;;;;;;5.82;4.03;;;18.90;56.00;;;;;;6192376;23;20135;-79
2021/05/20 04:41:40;;;;;;;6.47;4.25;;;18.80;55.60;;;;;;6141676;23;20194;-79
2021/05/20 04:44:06;;;;;;;6.05;4.00;;;18.80;55.80;;;;;;6141263;23;20131;-79
2021/05/20 04:46:34;;;;;;;5.13;4.22;;;18.80;55.60;;;;;;6192291;23;20475;-79
2021/05/20 04:49:02;;;;;;;4.20;3.80;;;18.80;55.60;;;;;;6165850;23;20169;-79
2021/05/20 04:51:28;;;;;;;5.25;4.10;;;18.80;55.00;;;;;;6192148;23;20202;-79
2021/05/20 04:53:53;;;;;;;4.70;3.88;;;18.80;55.20;;;;;;6191747;23;20138;-78
2021/05/20 04:56:23;;;;;;;4.70;4.05;;;18.80;55.30;;;;;;6192489;23;20131;-80
2021/05/20 04:58:50;;;;;;;5.78;4.22;;;18.80;55.50;;;;;;6142316;23;20237;-79
2021/05/20 05:01:16;;;;;;;4.82;4.10;;;18.80;55.40;;;;;;6192383;23;20525;-79
2021/05/20 05:03:42;;;;;;;6.13;3.92;;;18.80;55.60;;;;;;6192342;23;20138;-79
2021/05/20 05:06:08;;;;;;;5.00;4.20;;;18.80;55.20;;;;;;6192121;23;20200;-79
2021/05/20 05:08:35;;;;;;;4.88;4.05;;;18.80;55.00;;;;;;6194163;23;20257;-78
2021/05/20 05:11:01;;;;;;;4.50;4.10;;;18.80;55.10;;;;;;6168745;23;20210;-80
2021/05/20 05:13:27;;;;;;;4.88;4.38;;;18.80;55.10;;;;;;6197135;23;20132;-79
2021/05/20 05:15:54;;;;;;;4.65;4.15;;;18.90;55.00;;;;;;6195618;23;20585;-79
2021/05/20 05:18:20;;;;;;;5.10;4.15;;;18.80;54.80;;;;;;6198316;23;20138;-78
2021/05/20 05:20:45;;;;;;;4.90;3.80;;;18.80;54.80;;;;;;6195617;23;20662;-79
2021/05/20 05:23:11;;;;;;;5.53;3.95;;;18.80;54.90;;;;;;6199604;23;20134;-78
2021/05/20 05:25:38;;;;;;;4.72;4.22;;;18.80;54.70;;;;;;6198079;23;20142;-80
2021/05/20 05:28:06;;;;;;;4.43;4.03;;;18.80;54.90;;;;;;6171782;23;20506;-79
2021/05/20 05:30:34;;;;;;;4.40;3.90;;;18.90;54.80;;;;;;6172670;23;20490;-78
2021/05/20 05:33:01;;;;;;;4.80;4.30;;;18.80;54.70;;;;;;6200140;23;20134;-78
2021/05/20 05:35:28;;;;;;;4.90;3.75;;;18.90;54.90;;;;;;6172729;23;20133;-79
2021/05/20 05:37:53;;;;;;;4.63;4.10;;;18.80;54.90;;;;;;6172757;23;20332;-79
2021/05/20 05:40:19;;;;;;;4.20;3.83;;;18.80;55.10;;;;;;6146456;23;20254;-79
2021/05/20 05:42:45;;;;;;;4.28;3.88;;;18.80;54.80;;;;;;6172146;23;20143;-78
2021/05/20 05:45:18;;;;;;;4.47;4.00;;;18.80;55.20;;;;;;6173324;23;20131;-78
2021/05/20 05:47:48;;;;;;;4.93;4.03;;;18.80;55.00;;;;;;6199491;23;20146;-78
2021/05/20 05:50:15;;;;;;;4.90;4.32;;;18.80;55.10;;;;;;6198588;23;20182;-78
2021/05/20 05:52:41;;;;;;;4.78;4.35;;;18.90;55.00;;;;;;6148172;23;20147;-78
2021/05/20 05:55:09;;;;;;;5.53;4.22;;;18.80;54.80;;;;;;6148344;23;20191;-78
2021/05/20 05:57:36;;;;;;;6.13;4.13;;;18.80;54.50;;;;;;6198651;23;20285;-78
2021/05/20 06:00:03;;;;;;;4.70;4.28;;;18.80;54.60;;;;;;6146868;23;20134;-78
2021/05/20 06:02:32;;;;;;;4.30;3.90;;;18.80;54.70;;;;;;6199853;23;20145;-79
2021/05/20 06:04:58;;;;;;;4.15;3.75;;;18.90;54.50;;;;;;6199083;23;20135;-78
2021/05/20 06:07:24;;;;;;;4.32;3.92;;;18.90;54.20;;;;;;6172782;23;20158;-79
2021/05/20 06:09:51;;;;;;;5.82;4.10;;;18.90;54.40;;;;;;6139969;23;20205;-78
2021/05/20 06:12:17;;;;;;;4.25;3.85;;;18.90;54.20;;;;;;6189547;23;20131;-80
2021/05/20 06:14:51;;;;;;;4.50;4.10;;;18.90;54.00;;;;;;6142051;23;20146;-81
2021/05/20 06:17:18;;;;;;;4.57;4.18;;;18.90;54.20;;;;;;6194283;23;20158;-80
2021/05/20 06:19:44;;;;;;;4.85;4.20;;;18.90;54.60;;;;;;6162091;23;20150;-79
2021/05/20 06:22:10;;;;;;;4.45;4.05;;;18.90;54.40;;;;;;6189843;23;20135;-82
2021/05/20 06:24:38;;;;;;;5.05;4.40;;;18.90;54.20;;;;;;6146897;23;20158;-78
2021/05/20 06:27:05;;;;;;;4.88;4.15;;;19.00;54.30;;;;;;6148376;23;20149;-83
2021/05/20 06:29:31;;;;;;;5.10;4.45;;;18.90;54.40;;;;;;6194757;23;20244;-80
2021/05/20 06:32:00;;;;;;;4.60;4.20;;;18.90;54.10;;;;;;6143321;23;20147;-79
2021/05/20 06:34:27;;;;;;;4.88;4.43;;;19.00;54.50;;;;;;6114980;23;20214;-81
2021/05/20 06:36:56;;;;;;;4.25;3.85;;;19.00;54.40;;;;;;6161536;23;20585;-81
2021/05/20 06:39:22;;;;;;;4.95;4.20;;;19.00;54.40;;;;;;6162124;23;20590;-82
2021/05/20 06:41:47;;;;;;;5.00;4.47;;;19.00;54.40;;;;;;6139626;23;20194;-80
2021/05/20 06:44:15;;;;;;;4.78;4.28;;;19.00;54.30;;;;;;6112998;23;20151;-80
2021/05/20 06:46:42;;;;;;;4.53;4.05;;;19.00;54.30;;;;;;6187444;23;20162;-81
2021/05/20 06:49:18;;;;;;;4.72;4.28;;;19.00;54.30;;;;;;6135648;23;20190;-80
2021/05/20 06:51:43;;;;;;;4.65;4.13;;;19.00;54.20;;;;;;6139731;23;20142;-80
2021/05/20 06:54:18;;;;;;;4.82;4.32;;;19.00;54.40;;;;;;6193278;23;20495;-82
2021/05/20 06:56:49;;;;;;;5.53;4.10;;;19.00;54.40;;;;;;6165403;23;20131;-83
2021/05/20 07:02:00;;;;;;;5.13;4.00;;;19.00;54.40;;;;;;6166281;23;20553;-80
2021/05/20 07:04:26;;;;;;;5.32;4.50;;;19.00;54.30;;;;;;6188583;23;20550;-84
2021/05/20 07:06:52;;;;;;;4.70;4.20;;;19.00;54.20;;;;;;6169247;23;20146;-80
2021/05/20 07:09:18;;;;;;;4.30;3.90;;;19.10;54.30;;;;;;6189183;23;20206;-82
2021/05/20 07:11:44;;;;;;;5.25;4.22;;;19.10;54.20;;;;;;6112821;23;20173;-80
2021/05/20 07:14:10;;;;;;;4.28;3.88;;;19.10;54.10;;;;;;6160582;23;20221;-84
2021/05/20 07:16:36;;;;;;;4.65;4.20;;;19.00;54.00;;;;;;6161046;23;20622;-82
2021/05/20 07:19:01;;;;;;;5.72;4.05;;;19.10;54.00;;;;;;6159610;23;20218;-81
2021/05/20 07:21:28;;;;;;;4.65;4.18;;;19.10;54.10;;;;;;6187186;23;20135;-84
2021/05/20 07:23:53;;;;;;;7.03;4.10;;;19.10;54.10;;;;;;6166212;23;20131;-85
2021/05/20 07:26:20;;;;;;;6.20;4.57;;;19.10;54.00;;;;;;6163383;23;20467;-84
2021/05/20 07:28:51;;;;;;;5.97;4.50;;;19.10;54.10;;;;;;6159083;23;20201;-82
2021/05/20 07:31:17;;;;;;;4.45;3.97;;;19.10;54.10;;;;;;6138607;23;20134;-84
2021/05/20 07:33:43;;;;;;;4.63;4.22;;;19.00;54.30;;;;;;6186837;23;20135;-83
2021/05/20 07:36:08;;;;;;;4.68;4.28;;;19.00;54.20;;;;;;6136342;23;20575;-84
2021/05/20 07:38:34;;;;;;;4.88;4.38;;;19.00;54.10;;;;;;6160647;23;20149;-82
2021/05/20 07:41:00;;;;;;;4.50;4.10;;;19.10;54.10;;;;;;6187529;23;20186;-85
2021/05/20 07:43:26;;;;;;;4.82;4.32;;;19.10;54.00;;;;;;6138993;23;20143;-80
2021/05/20 07:45:52;;;;;;;5.50;4.32;;;19.10;54.10;;;;;;6162358;23;20142;-82
2021/05/20 07:48:18;;;;;;;4.93;4.43;;;19.10;54.10;;;;;;6113194;23;20305;-83
2021/05/20 07:50:43;;;;;;;4.43;4.03;;;19.10;54.10;;;;;;6137032;23;20127;-85
2021/05/20 07:53:10;;;;;;;4.90;4.50;;;19.10;53.90;;;;;;6161067;23;20131;-82
2021/05/20 07:55:36;;;;;;;5.32;4.40;;;19.20;53.90;;;;;;6163727;23;20134;-82
2021/05/20 07:58:04;;;;;;;4.70;4.20;;;19.20;54.00;;;;;;6136365;23;20143;-82
2021/05/20 08:00:32;;;;;;;4.63;4.22;;;19.20;53.90;;;;;;6162256;23;20135;-83
2021/05/20 08:03:09;;;;;;;4.57;4.18;;;19.20;53.90;;;;;;6117400;23;20273;-81
2021/05/20 08:05:41;;;;;;;5.20;4.70;;;19.20;53.90;;;;;;6117905;23;20150;-84
2021/05/20 08:10:48;;;;;;;5.20;4.30;;;19.10;54.10;;;;;;6164913;23;20147;-81
2021/05/20 08:13:17;;;;;;;5.10;4.22;;;19.10;54.00;;;;;;6139473;23;20615;-80
2021/05/20 08:15:42;;;;;;;6.13;4.38;;;19.10;54.00;;;;;;6136181;23;20471;-83
2021/05/20 08:18:08;;;;;;;5.15;4.35;;;19.20;53.80;;;;;;6162640;23;20154;-84
2021/05/20 08:20:34;;;;;;;4.72;4.20;;;19.20;53.80;;;;;;6111960;23;20158;-81
2021/05/20 08:23:00;;;;;;;4.70;4.30;;;19.20;53.70;;;;;;6136551;23;20131;-86
2021/05/20 08:25:27;;;;;;;4.43;4.03;;;19.20;53.80;;;;;;6168291;23;20141;-78
2021/05/20 08:27:56;;;;;;;6.50;4.47;;;19.20;53.90;;;;;;6169483;23;20135;-79
2021/05/20 08:30:21;;;;;;;4.68;4.28;;;19.10;54.00;;;;;;6119450;23;20201;-78
2021/05/20 08:32:47;;;;;;;5.68;4.38;;;19.10;54.00;;;;;;6188755;23;20135;-82
2021/05/20 08:35:15;;;;;;;4.43;4.03;;;19.20;53.90;;;;;;6139842;23;20146;-82
2021/05/20 08:37:42;;;;;;;4.45;4.05;;;19.20;53.90;;;;;;6160288;23;20135;-85
2021/05/20 08:40:08;;;;;;;5.75;4.57;;;19.20;53.90;;;;;;6160605;23;20199;-83
2021/05/20 08:42:34;;;;;;;4.85;4.40;;;19.20;53.80;;;;;;6162424;23;20150;-80
2021/05/20 08:45:20;;;;;;;4.90;4.22;;;19.20;53.70;;;;;;6189140;23;20512;-79
2021/05/20 08:47:48;;;;;;;4.85;4.43;;;19.20;53.60;;;;;;6166038;23;20150;-81
2021/05/20 08:50:17;;;;;;;4.90;4.40;;;19.20;53.70;;;;;;6143764;23;20282;-79
2021/05/20 08:52:44;;;;;;;5.80;4.45;;;19.20;53.50;;;;;;6169964;23;20127;-80
2021/05/20 08:55:13;;;;;;;4.65;4.15;;;19.30;53.50;;;;;;6170888;23;20626;-81
2021/05/20 08:57:40;;;;;;;5.00;4.50;;;19.40;53.50;;;;;;6166001;23;20134;-81
2021/05/20 09:00:10;;;;;;;4.78;4.28;;;19.30;53.50;;;;;;6161339;23;20143;-81
2021/05/20 09:02:36;;;;;;;4.82;4.32;;;19.20;53.50;;;;;;6138193;23;20158;-81
2021/05/20 09:05:18;;;;;;;5.00;4.40;;;19.20;53.50;;;;;;6160941;23;20450;-83
2021/05/20 09:07:50;;;;;;;4.38;3.97;;;19.30;53.20;;;;;;6163343;23;20138;-81
2021/05/20 09:10:19;;;;;;;4.82;4.15;;;19.30;53.20;;;;;;6111603;23;20197;-81
2021/05/20 09:12:49;;;;;;;5.38;4.60;;;19.30;53.20;;;;;;6141688;23;20186;-81
2021/05/20 09:15:30;;;;;;;4.60;4.20;;;19.30;53.20;;;;;;6195624;23;20135;-81
2021/05/20 09:18:17;;;;;;;4.78;4.28;;;19.30;53.10;;;;;;6170139;23;20463;-83
2021/05/20 09:20:47;;;;;;;4.90;4.45;;;19.20;53.20;;;;;;6160279;23;20181;-82
2021/05/20 09:23:21;;;;;;;4.72;4.28;;;19.20;53.00;;;;;;6161423;23;20218;-83
2021/05/20 09:25:48;;;;;;;4.32;3.92;;;19.30;52.90;;;;;;6136192;23;20221;-83
2021/05/20 09:28:14;;;;;;;4.97;4.13;;;19.30;52.50;;;;;;6160145;23;20558;-81
2021/05/20 09:30:42;;;;;;;4.60;4.20;;;19.30;52.50;;;;;;6186464;23;20158;-83
2021/05/20 09:33:10;;;;;;;4.63;3.92;;;19.40;52.30;;;;;;6159934;23;20122;-82
2021/05/20 09:35:40;;;;;;;4.95;4.45;;;19.40;52.30;;;;;;6163410;23;20131;-83
2021/05/20 09:38:17;;;;;;;5.07;4.18;;;19.40;52.60;;;;;;6142590;23;20135;-80
2021/05/20 09:40:55;;;;;;;9.18;4.00;;;19.40;52.30;;;;;;6195698;23;20201;-79
2021/05/20 09:43:24;;;;;;;4.55;4.15;;;19.40;52.20;;;;;;6173415;23;20218;-79
2021/05/20 09:45:52;;;;;;;5.18;4.10;;;19.40;52.10;;;;;;6146391;23;20138;-78
2021/05/20 09:48:20;;;;;;;4.63;4.22;;;19.40;51.90;;;;;;6122134;23;20143;-79
2021/05/20 09:50:51;;;;;;;4.13;3.72;;;19.50;51.90;;;;;;6171947;23;20186;-80
2021/05/20 09:53:19;;;;;;;4.85;4.07;;;19.50;51.90;;;;;;6145525;23;20163;-79
2021/05/20 09:55:53;;;;;;;4.40;4.00;;;19.40;51.90;;;;;;6121122;23;20143;-81
2021/05/20 09:58:30;;;;;;;4.60;4.07;;;19.40;52.00;;;;;;6141793;23;20122;-79
2021/05/20 10:01:00;;;;;;;4.38;3.97;;;19.40;51.70;;;;;;6143269;23;20563;-81
2021/05/20 10:03:28;;;;;;;4.35;3.95;;;19.40;51.90;;;;;;6165457;23;20135;-81
2021/05/20 10:06:04;;;;;;;4.05;3.65;;;19.40;52.10;;;;;;6147179;23;20138;-80
2021/05/20 10:08:32;;;;;;;5.22;4.35;;;19.40;51.90;;;;;;6171764;23;20157;-79
2021/05/20 10:11:03;;;;;;;4.85;3.80;;;19.30;52.30;;;;;;6147875;23;20138;-78
2021/05/20 10:13:29;;;;;;;5.20;3.88;;;19.30;51.70;;;;;;6197753;23;20131;-77
2021/05/20 10:15:58;;;;;;;6.45;3.70;;;19.40;51.90;;;;;;6173298;23;20135;-78
2021/05/20 10:18:27;;;;;;;5.05;4.25;;;19.40;51.70;;;;;;6148227;23;20151;-77
2021/05/20 10:21:04;;;;;;;4.65;3.95;;;19.40;51.90;;;;;;6149464;23;20131;-78
2021/05/20 10:23:34;;;;;;;5.40;4.20;;;19.40;51.60;;;;;;6125586;23;20141;-78
2021/05/20 10:26:01;;;;;;;6.18;3.90;;;19.40;51.60;;;;;;6146986;23;20193;-78
2021/05/20 10:28:31;;;;;;;6.10;3.92;;;19.30;51.70;;;;;;6124528;23;20199;-78
2021/05/20 10:30:59;;;;;;;4.65;4.10;;;19.30;51.70;;;;;;6149023;23;20163;-78
2021/05/20 10:33:28;;;;;;;4.78;3.72;;;19.30;51.60;;;;;;6124147;23;20158;-78
2021/05/20 10:36:00;;;;;;;5.38;4.25;;;19.40;51.40;;;;;;6149848;23;20138;-80
2021/05/20 10:38:29;;;;;;;5.25;4.00;;;19.40;51.60;;;;;;6167211;23;20139;-85
2021/05/20 10:41:37;;;;;;;5.32;4.40;;;19.30;51.40;;;;;;6186693;23;20186;-82
2021/05/20 10:44:02;;;;;;;4.32;3.92;;;19.40;51.20;;;;;;6139038;23;20586;-81
2021/05/20 10:46:57;;;;;;;5.10;3.60;;;19.40;51.20;;;;;;6187308;23;20158;-84
2021/05/20 10:49:53;;;;;;;4.75;3.78;;;19.40;51.00;;;;;;6190821;23;20194;-82
2021/05/20 10:52:40;;;;;;;4.25;3.83;;;19.40;51.00;;;;;;6163687;23;20156;-86
2021/05/20 10:55:08;;;;;;;4.80;3.80;;;19.40;50.90;;;;;;6187343;23;20161;-85
2021/05/20 10:57:49;;;;;;;5.53;4.03;;;19.40;50.90;;;;;;6137174;23;20138;-85
2021/05/20 11:01:01;;;;;;;5.30;3.72;;;19.40;50.90;;;;;;6189604;23;20153;-80
2021/05/20 11:04:11;;;;;;;4.63;3.90;;;19.40;50.90;;;;;;6192490;23;20131;-81
2021/05/20 11:06:41;;;;;;;4.00;3.60;;;19.40;50.80;;;;;;6170576;23;20190;-81
2021/05/20 11:09:48;;;;;;;5.60;4.00;;;19.40;51.30;;;;;;6170006;23;20209;-82
2021/05/20 11:12:17;;;;;;;4.93;3.30;;;19.40;50.50;;;;;;6141984;23;20478;-80
2021/05/20 11:15:05;;;;;;;6.47;3.75;;;19.40;50.30;;;;;;6142806;23;20138;-80
2021/05/20 11:17:44;;;;;;;5.40;3.92;;;19.40;50.00;;;;;;6170578;23;20215;-78
2021/05/20 11:20:37;;;;;;;4.85;3.97;;;19.40;49.80;;;;;;6201907;23;20144;-80
2021/05/20 11:23:17;;;;;;;6.60;4.00;;;19.40;50.10;;;;;;6149487;23;20154;-80
2021/05/20 11:25:46;;;;;;;4.20;3.80;;;19.40;50.00;;;;;;6198936;23;20134;-81
2021/05/20 11:28:17;;;;;;;4.15;3.75;;;19.40;50.10;;;;;;6145146;23;20151;-79
2021/05/20 11:30:43;;;;;;;5.10;4.13;;;19.40;50.10;;;;;;6145973;23;20154;-81
2021/05/20 11:33:34;;;;;;;5.35;4.10;;;19.40;49.80;;;;;;6162668;23;20157;-84
2021/05/20 11:38:30;;;;;;;4.45;3.75;;;19.40;49.80;;;;;;6140175;23;20229;-83
2021/05/20 11:40:55;;;;;;;4.07;3.65;;;19.40;49.80;;;;;;6136986;23;20233;-85
2021/05/20 11:43:28;;;;;;;4.75;3.92;;;19.40;49.60;;;;;;6164967;23;20154;-82
2021/05/20 11:45:55;;;;;;;7.70;3.90;;;19.40;49.60;;;;;;6189040;23;20131;-84
2021/05/20 11:48:21;;;;;;;4.63;3.45;;;19.50;49.50;;;;;;6164077;23;20131;-83
2021/05/20 11:51:09;;;;;;;4.68;3.88;;;19.40;49.60;;;;;;6138589;23;20135;-82
2021/05/20 11:54:02;;;;;;;5.18;3.90;;;19.40;49.60;;;;;;6184524;23;20598;-86
2021/05/20 11:56:49;;;;;;;4.97;3.75;;;19.40;49.40;;;;;;6161850;23;20226;-84
2021/05/20 11:59:15;;;;;;;4.65;4.13;;;19.50;49.30;;;;;;6191559;23;20568;-81
2021/05/20 12:01:42;;;;;;;4.45;3.53;;;19.50;49.30;;;;;;6193713;23;20571;-86
2021/05/20 12:04:10;;;;;;;3.92;3.53;;;19.50;49.00;;;;;;6162121;23;20134;-87
2021/05/20 12:06:36;;;;;;;4.53;3.50;;;19.50;48.70;;;;;;6168230;23;20145;-81
2021/05/20 12:09:13;;;;;;;4.20;3.53;;;19.40;48.50;;;;;;6140577;23;20198;-84
2021/05/20 12:11:39;;;;;;;6.07;3.83;;;19.40;48.60;;;;;;6138215;23;20135;-83
2021/05/20 12:14:26;;;;;;;4.47;3.95;;;19.50;48.60;;;;;;6136481;23;20564;-82
2021/05/20 12:17:02;;;;;;;4.65;3.97;;;19.40;48.70;;;;;;6188138;23;20135;-82
2021/05/20 12:19:30;;;;;;;5.97;3.72;;;19.50;48.60;;;;;;6165065;23;20154;-82
2021/05/20 12:22:06;;;;;;;4.35;3.90;;;19.50;48.70;;;;;;6164690;23;20134;-82
2021/05/20 12:25:04;;;;;;;4.30;3.90;;;19.50;48.70;;;;;;6168419;23;20143;-83
2021/05/20 12:27:36;;;;;;;4.03;3.63;;;19.50;49.60;;;;;;6166996;23;20154;-82
2021/05/20 12:30:25;;;;;;;4.28;3.67;;;19.50;48.70;;;;;;6192213;23;20190;-82
2021/05/20 12:33:06;;;;;;;5.05;4.07;;;19.50;48.60;;;;;;6166889;23;20149;-85
2021/05/20 12:35:48;;;;;;;4.50;4.07;;;19.50;48.90;;;;;;6191494;23;20559;-85
2021/05/20 12:38:28;;;;;;;4.10;3.70;;;19.40;48.90;;;;;;6195575;23;20135;-81
2021/05/20 12:40:57;;;;;;;4.47;3.90;;;19.40;49.10;;;;;;6142106;23;20234;-84
2021/05/20 12:43:28;;;;;;;4.88;3.95;;;19.40;49.00;;;;;;6141980;23;20150;-83
2021/05/20 12:45:57;;;;;;;5.03;4.03;;;19.40;48.90;;;;;;6145957;23;20165;-82
2021/05/20 12:48:24;;;;;;;4.30;3.90;;;19.40;49.00;;;;;;6147492;23;20163;-81
2021/05/20 12:50:51;;;;;;;4.43;3.72;;;19.30;49.10;;;;;;6146866;23;20463;-83
2021/05/20 12:53:37;;;;;;;4.50;3.90;;;19.30;49.10;;;;;;6147823;23;20154;-81
2021/05/20 12:56:22;;;;;;;3.92;3.63;;;19.30;48.90;;;;;;6169791;23;20202;-86
2021/05/20 12:58:57;;;;;;;4.28;3.88;;;19.30;48.80;;;;;;6190604;23;20131;-83
2021/05/20 13:01:35;;;;;;;4.40;4.00;;;19.40;48.70;;;;;;6163003;23;20146;-83
2021/05/20 13:04:14;;;;;;;4.03;3.30;;;19.40;48.60;;;;;;6161150;23;20147;-86
2021/05/20 13:06:41;;;;;;;5.30;3.80;;;19.50;48.30;;;;;;6169931;23;20127;-80
2021/05/20 13:09:08;;;;;;;4.63;3.80;;;19.50;48.30;;;;;;6146858;23;20265;-80